Time;durP1;ratioP1;P1;durP2;ratioP2;P2;SDS_P1;SDS_P2;PMS_P1;PMS_P2;Temp;Humidity;BMP_temperature;BMP_pressure;BME280_temperature;BME280_humidity;BME280_pressure;Samples;Min_cycle;Max_cycle;Signal;HPM_P1;HPM_P2
2024/01/16 00:01:57;;;;;;;3.75;0.30;;;;;;;;;;5099759;28;20116;-79
2024/01/16 00:04:23;;;;;;;4.55;0.28;;;;;;;;;;5117638;28;20052;-79
2024/01/16 00:06:49;;;;;;;6.88;0.60;;;;;;;;;;5099746;28;20047;-79
2024/01/16 00:09:15;;;;;;;6.50;0.30;;;;;;;;;;5117611;28;20475;-79
2024/01/16 00:11:41;;;;;;;5.07;0.40;;;;;;;;;;5099407;28;20075;-80
2024/01/16 00:14:08;;;;;;;8.48;0.40;;;;;;;;;;5099541;28;20050;-79
2024/01/16 00:16:34;;;;;;;5.93;0.38;;;;;;;;;;5099421;28;20134;-79
2024/01/16 00:19:00;;;;;;;2.85;0.35;;;;;;;;;;5082469;28;20048;-79
2024/01/16 00:21:26;;;;;;;5.78;0.40;;;;;;;;;;5099226;28;20089;-79
2024/01/16 00:23:52;;;;;;;8.85;0.40;;;;;;;;;;5099271;28;20498;-79
2024/01/16 00:26:22;;;;;;;5.78;0.30;;;;;;;;;;5099571;28;20475;-79
2024/01/16 00:28:48;;;;;;;3.38;0.50;;;;;;;;;;5099248;28;20127;-79
2024/01/16 00:31:14;;;;;;;6.25;0.57;;;;;;;;;;5117127;28;20051;-79
2024/01/16 00:33:40;;;;;;;7.55;0.40;;;;;;;;;;5099790;28;20478;-79
2024/01/16 00:36:06;;;;;;;6.82;0.75;;;;;;;;;;5116894;28;20487;-79
2024/01/16 00:38:35;;;;;;;4.47;0.47;;;;;;;;;;5116782;28;20079;-79
2024/01/16 00:41:01;;;;;;;5.40;0.30;;;;;;;;;;5098796;28;20050;-79
2024/01/16 00:43:27;;;;;;;5.63;0.30;;;;;;;;;;5081681;28;20043;-79
2024/01/16 00:45:53;;;;;;;6.60;0.65;;;;;;;;;;5098862;28;20039;-79
2024/01/16 00:48:20;;;;;;;5.63;0.60;;;;;;;;;;5098790;28;20124;-79
2024/01/16 00:50:49;;;;;;;6.30;0.57;;;;;;;;;;5098757;28;20416;-79
2024/01/16 00:53:16;;;;;;;7.40;0.47;;;;;;;;;;5098142;28;20059;-79
2024/01/16 00:55:42;;;;;;;3.35;0.30;;;;;;;;;;5098384;28;20142;-79
2024/01/16 00:58:09;;;;;;;7.22;0.68;;;;;;;;;;5097898;28;20050;-80
2024/01/16 01:00:37;;;;;;;7.95;0.43;;;;;;;;;;5098206;28;20558;-79
2024/01/16 01:03:03;;;;;;;8.35;0.20;;;;;;;;;;5096711;28;20373;-80
2024/01/16 01:05:29;;;;;;;3.85;0.50;;;;;;;;;;5081652;28;20050;-79
2024/01/16 01:07:56;;;;;;;4.25;0.22;;;;;;;;;;5098482;28;20127;-79
2024/01/16 01:10:22;;;;;;;3.65;0.30;;;;;;;;;;5098701;28;20039;-79
2024/01/16 01:12:48;;;;;;;5.07;0.20;;;;;;;;;;5097624;28;20520;-80
2024/01/16 01:15:15;;;;;;;4.22;0.30;;;;;;;;;;5098079;28;20040;-79
2024/01/16 01:17:41;;;;;;;1.95;0.20;;;;;;;;;;5098168;28;20157;-79
2024/01/16 01:20:08;;;;;;;6.57;0.30;;;;;;;;;;5098652;28;20095;-80
2024/01/16 01:22:34;;;;;;;6.78;0.20;;;;;;;;;;5098054;28;20050;-79
2024/01/16 01:25:00;;;;;;;6.03;0.20;;;;;;;;;;5098088;28;20051;-79
2024/01/16 01:27:26;;;;;;;5.10;0.50;;;;;;;;;;5097993;28;20040;-79
2024/01/16 01:29:52;;;;;;;5.45;0.20;;;;;;;;;;5115903;28;20040;-79
2024/01/16 01:32:18;;;;;;;5.18;0.30;;;;;;;;;;5097615;28;20075;-79
2024/01/16 01:34:44;;;;;;;6.93;0.40;;;;;;;;;;5115701;28;20088;-79
2024/01/16 01:37:10;;;;;;;4.63;0.30;;;;;;;;;;5064824;28;20509;-80
2024/01/16 01:39:36;;;;;;;1.33;0.10;;;;;;;;;;5081411;28;20396;-79
2024/01/16 01:42:03;;;;;;;3.13;0.20;;;;;;;;;;5097218;28;20130;-80
2024/01/16 01:44:29;;;;;;;2.90;0.20;;;;;;;;;;5098035;28;20368;-79
2024/01/16 01:46:55;;;;;;;3.35;0.20;;;;;;;;;;5097817;28;20117;-79
2024/01/16 01:49:22;;;;;;;2.40;0.10;;;;;;;;;;5097582;28;20040;-79
2024/01/16 01:51:49;;;;;;;2.35;0.35;;;;;;;;;;5097210;28;20056;-79
2024/01/16 01:54:16;;;;;;;6.45;0.47;;;;;;;;;;5115398;28;20047;-79
2024/01/16 01:56:45;;;;;;;3.33;0.13;;;;;;;;;;5097230;28;20537;-79
2024/01/16 01:59:11;;;;;;;4.10;0.70;;;;;;;;;;5097396;28;20051;-80
2024/01/16 02:01:38;;;;;;;3.20;0.22;;;;;;;;;;5097370;28;20039;-80
2024/01/16 02:04:04;;;;;;;5.47;0.30;;;;;;;;;;5080117;28;20513;-79
2024/01/16 02:06:31;;;;;;;4.95;0.30;;;;;;;;;;5097108;28;20104;-80
2024/01/16 02:08:57;;;;;;;2.17;0.30;;;;;;;;;;5097442;28;20126;-79
2024/01/16 02:11:23;;;;;;;3.03;0.13;;;;;;;;;;5080824;28;20048;-80
2024/01/16 02:13:49;;;;;;;2.45;0.52;;;;;;;;;;5096461;28;20054;-80
2024/01/16 02:16:19;;;;;;;5.35;0.70;;;;;;;;;;5080283;28;20091;-79
2024/01/16 02:18:46;;;;;;;2.83;0.10;;;;;;;;;;5096882;28;20448;-79
2024/01/16 02:21:13;;;;;;;6.20;0.38;;;;;;;;;;5097067;28;20053;-79
2024/01/16 02:23:39;;;;;;;2.58;0.20;;;;;;;;;;5096966;28;20047;-79
2024/01/16 02:26:05;;;;;;;6.10;0.20;;;;;;;;;;5096989;28;20138;-79
2024/01/16 02:28:31;;;;;;;6.18;0.40;;;;;;;;;;5080681;28;20054;-79
2024/01/16 02:30:57;;;;;;;9.10;0.20;;;;;;;;;;5096959;28;20043;-79
2024/01/16 02:33:23;;;;;;;5.00;0.40;;;;;;;;;;5080031;28;20039;-79
2024/01/16 02:35:49;;;;;;;4.22;0.30;;;;;;;;;;5079724;28;20048;-79
2024/01/16 02:38:15;;;;;;;3.53;0.20;;;;;;;;;;5079925;28;20044;-80
2024/01/16 02:40:41;;;;;;;5.72;0.30;;;;;;;;;;5096713;28;20087;-80
2024/01/16 02:43:07;;;;;;;3.80;0.32;;;;;;;;;;5079447;28;20047;-80
2024/01/16 02:45:34;;;;;;;3.13;0.20;;;;;;;;;;5096488;28;20500;-79
2024/01/16 02:48:00;;;;;;;2.88;0.20;;;;;;;;;;5096231;28;20123;-79
2024/01/16 02:50:26;;;;;;;4.45;0.40;;;;;;;;;;5079446;28;20376;-80
2024/01/16 02:52:52;;;;;;;6.15;0.20;;;;;;;;;;5095815;28;20055;-79
2024/01/16 02:55:18;;;;;;;3.30;0.20;;;;;;;;;;5096174;28;20560;-80
2024/01/16 02:57:44;;;;;;;3.95;0.20;;;;;;;;;;5079477;28;20507;-79
2024/01/16 03:00:11;;;;;;;3.60;0.20;;;;;;;;;;5096419;28;20085;-79
2024/01/16 03:02:37;;;;;;;5.95;0.20;;;;;;;;;;5097187;28;20050;-79
2024/01/16 03:05:05;;;;;;;3.55;0.20;;;;;;;;;;5096180;28;20075;-79
2024/01/16 03:07:31;;;;;;;2.88;0.30;;;;;;;;;;5096353;28;20043;-79
2024/01/16 03:09:57;;;;;;;2.17;0.10;;;;;;;;;;5095949;28;20100;-79
2024/01/16 03:12:23;;;;;;;5.22;0.32;;;;;;;;;;5113835;28;20048;-80
2024/01/16 03:14:49;;;;;;;4.90;0.20;;;;;;;;;;5079244;28;20391;-79
2024/01/16 03:17:15;;;;;;;4.15;0.75;;;;;;;;;;5079578;28;20364;-80
2024/01/16 03:19:43;;;;;;;6.50;0.20;;;;;;;;;;5079431;28;20460;-79
2024/01/16 03:22:09;;;;;;;3.05;0.20;;;;;;;;;;5096120;28;20048;-80
2024/01/16 03:24:35;;;;;;;2.67;0.30;;;;;;;;;;5079434;28;20457;-80
2024/01/16 03:27:02;;;;;;;3.42;0.35;;;;;;;;;;5116726;28;20054;-80
2024/01/16 03:29:28;;;;;;;5.55;0.30;;;;;;;;;;5100212;28;20437;-80
2024/01/16 03:31:54;;;;;;;4.25;0.20;;;;;;;;;;5100355;28;20050;-80
2024/01/16 03:34:20;;;;;;;3.63;0.25;;;;;;;;;;5099596;28;20047;-79
2024/01/16 03:36:46;;;;;;;8.30;0.30;;;;;;;;;;5100228;28;20044;-79
2024/01/16 03:39:12;;;;;;;3.58;0.40;;;;;;;;;;5100395;28;20433;-79
2024/01/16 03:41:38;;;;;;;3.25;0.30;;;;;;;;;;5099687;28;20052;-80
2024/01/16 03:44:04;;;;;;;4.85;0.30;;;;;;;;;;5117970;28;20047;-79
2024/01/16 03:46:30;;;;;;;4.65;0.40;;;;;;;;;;5099851;28;20100;-80
2024/01/16 03:48:56;;;;;;;1.80;0.20;;;;;;;;;;5099912;28;20055;-80
2024/01/16 03:51:22;;;;;;;4.50;0.30;;;;;;;;;;5099433;28;20044;-79
2024/01/16 03:53:48;;;;;;;7.18;0.82;;;;;;;;;;5082644;28;20488;-79
2024/01/16 03:56:16;;;;;;;5.18;0.30;;;;;;;;;;5099714;28;20125;-80
2024/01/16 03:58:42;;;;;;;8.85;0.40;;;;;;;;;;5099670;28;20047;-80
2024/01/16 04:01:08;;;;;;;5.50;0.50;;;;;;;;;;5082800;28;20043;-80
2024/01/16 04:03:38;;;;;;;5.70;0.45;;;;;;;;;;5099740;28;20055;-80
2024/01/16 04:06:04;;;;;;;5.25;0.30;;;;;;;;;;5099500;28;20130;-80
2024/01/16 04:08:30;;;;;;;4.75;0.47;;;;;;;;;;5082598;28;20047;-80
2024/01/16 04:10:56;;;;;;;4.20;0.35;;;;;;;;;;5099709;28;20073;-80
2024/01/16 04:13:22;;;;;;;3.35;0.32;;;;;;;;;;5099107;28;20130;-80
2024/01/16 04:15:48;;;;;;;8.82;0.40;;;;;;;;;;5098786;28;20036;-80
2024/01/16 04:18:14;;;;;;;5.90;0.65;;;;;;;;;;5099416;28;20126;-80
2024/01/16 04:20:40;;;;;;;4.13;0.30;;;;;;;;;;5099813;28;20368;-79
2024/01/16 04:23:06;;;;;;;6.28;0.30;;;;;;;;;;5099715;28;20440;-79
2024/01/16 04:25:32;;;;;;;6.03;0.30;;;;;;;;;;5098973;28;20565;-79
2024/01/16 04:27:59;;;;;;;6.15;0.28;;;;;;;;;;5099258;28;20044;-79
2024/01/16 04:30:25;;;;;;;6.32;0.30;;;;;;;;;;5082334;28;20051;-80
2024/01/16 04:32:51;;;;;;;1.80;0.22;;;;;;;;;;5081970;28;20051;-80
2024/01/16 04:35:17;;;;;;;4.80;0.20;;;;;;;;;;5098841;28;20399;-79
2024/01/16 04:37:43;;;;;;;5.70;0.40;;;;;;;;;;5098929;28;20126;-79
2024/01/16 04:40:09;;;;;;;7.65;0.43;;;;;;;;;;5099425;28;20039;-79
2024/01/16 04:42:35;;;;;;;7.80;0.55;;;;;;;;;;5081500;28;20050;-80
2024/01/16 04:45:01;;;;;;;5.85;0.77;;;;;;;;;;5065533;28;20083;-80
2024/01/16 04:47:27;;;;;;;6.00;0.30;;;;;;;;;;5098879;28;20399;-80
2024/01/16 04:49:53;;;;;;;6.43;0.30;;;;;;;;;;5098862;28;20048;-80
2024/01/16 04:52:19;;;;;;;3.08;0.25;;;;;;;;;;5115826;28;20098;-80
2024/01/16 04:54:46;;;;;;;6.85;0.35;;;;;;;;;;5097299;28;20048;-80
2024/01/16 04:57:12;;;;;;;5.97;0.43;;;;;;;;;;5098437;28;20109;-80
2024/01/16 04:59:39;;;;;;;3.60;0.38;;;;;;;;;;5098540;28;20052;-80
2024/01/16 05:02:05;;;;;;;4.20;0.30;;;;;;;;;;5081648;28;20094;-80
2024/01/16 05:04:31;;;;;;;3.60;0.30;;;;;;;;;;5064715;28;20046;-79
2024/01/16 05:06:57;;;;;;;5.80;0.50;;;;;;;;;;5098149;28;20488;-80
2024/01/16 05:09:23;;;;;;;3.13;0.40;;;;;;;;;;5098365;28;20075;-80
2024/01/16 05:11:49;;;;;;;3.40;0.55;;;;;;;;;;5081314;28;20044;-80
2024/01/16 05:14:15;;;;;;;4.30;0.20;;;;;;;;;;5116073;28;20043;-80
2024/01/16 05:16:41;;;;;;;4.90;0.30;;;;;;;;;;5098269;28;20392;-80
2024/01/16 05:19:07;;;;;;;8.23;0.65;;;;;;;;;;5098158;28;20039;-80
2024/01/16 05:21:33;;;;;;;7.80;0.50;;;;;;;;;;5098253;28;20043;-79
2024/01/16 05:23:59;;;;;;;5.97;0.30;;;;;;;;;;5098712;28;20372;-80
2024/01/16 05:26:25;;;;;;;4.35;0.35;;;;;;;;;;5098085;28;20130;-80
2024/01/16 05:28:51;;;;;;;8.98;0.45;;;;;;;;;;5081140;28;20054;-80
2024/01/16 05:31:19;;;;;;;6.57;0.55;;;;;;;;;;5097943;28;20055;-79
2024/01/16 05:33:45;;;;;;;3.13;0.40;;;;;;;;;;5097673;28;20066;-80
2024/01/16 05:36:11;;;;;;;7.07;0.22;;;;;;;;;;5098194;28;20048;-80
2024/01/16 05:38:37;;;;;;;5.47;0.68;;;;;;;;;;5098078;28;20047;-80
2024/01/16 05:41:03;;;;;;;6.60;0.30;;;;;;;;;;5097762;28;20130;-79
2024/01/16 05:43:29;;;;;;;5.45;0.40;;;;;;;;;;5097433;28;20417;-80
2024/01/16 05:45:56;;;;;;;6.22;0.38;;;;;;;;;;5097711;28;20047;-79
2024/01/16 05:48:22;;;;;;;4.32;0.40;;;;;;;;;;5097541;28;20052;-79
2024/01/16 05:50:48;;;;;;;4.38;0.52;;;;;;;;;;5097017;28;20047;-80
2024/01/16 05:53:14;;;;;;;7.82;0.40;;;;;;;;;;5096746;28;20104;-79
2024/01/16 05:55:40;;;;;;;4.35;0.40;;;;;;;;;;5080456;28;20054;-79
2024/01/16 05:58:06;;;;;;;5.25;0.30;;;;;;;;;;5097497;28;20048;-79
2024/01/16 06:00:34;;;;;;;4.97;0.43;;;;;;;;;;5097408;28;20058;-79
2024/01/16 06:03:00;;;;;;;5.10;0.40;;;;;;;;;;5080677;28;20043;-80
2024/01/16 06:05:26;;;;;;;6.50;0.60;;;;;;;;;;5097371;28;20436;-80
2024/01/16 06:07:52;;;;;;;3.97;0.40;;;;;;;;;;5097896;28;20044;-80
2024/01/16 06:10:18;;;;;;;6.50;0.65;;;;;;;;;;5097186;28;20043;-80
2024/01/16 06:12:44;;;;;;;6.80;1.20;;;;;;;;;;5096798;28;20060;-80
2024/01/16 06:15:13;;;;;;;3.67;0.40;;;;;;;;;;5096869;28;20086;-79
2024/01/16 06:17:39;;;;;;;4.93;0.45;;;;;;;;;;5080637;28;20047;-79
2024/01/16 06:20:06;;;;;;;7.60;0.40;;;;;;;;;;5080046;28;20087;-80
2024/01/16 06:22:32;;;;;;;3.90;0.40;;;;;;;;;;5080243;28;20047;-79
2024/01/16 06:24:58;;;;;;;6.15;0.50;;;;;;;;;;5096952;28;20043;-79
2024/01/16 06:27:24;;;;;;;5.35;0.70;;;;;;;;;;5096862;28;20054;-79
2024/01/16 06:29:51;;;;;;;5.85;0.52;;;;;;;;;;5096887;28;20040;-80
2024/01/16 06:32:17;;;;;;;5.25;0.47;;;;;;;;;;5080099;28;20051;-79
2024/01/16 06:34:43;;;;;;;4.95;0.50;;;;;;;;;;5096703;28;20479;-80
2024/01/16 06:37:10;;;;;;;4.68;1.23;;;;;;;;;;5096696;28;20504;-79
2024/01/16 06:39:36;;;;;;;4.35;0.70;;;;;;;;;;5096614;28;20479;-79
2024/01/16 06:42:04;;;;;;;2.50;0.65;;;;;;;;;;5096217;28;20059;-81
2024/01/16 06:44:30;;;;;;;8.52;0.90;;;;;;;;;;5095847;28;20514;-81
2024/01/16 06:46:58;;;;;;;2.70;0.70;;;;;;;;;;5096741;28;20140;-80
2024/01/16 06:49:24;;;;;;;4.43;1.23;;;;;;;;;;5079753;28;20419;-80
2024/01/16 06:51:50;;;;;;;4.95;0.50;;;;;;;;;;5096309;28;20048;-80
2024/01/16 06:54:16;;;;;;;7.45;1.08;;;;;;;;;;5096335;28;20055;-80
2024/01/16 06:56:42;;;;;;;3.10;0.60;;;;;;;;;;5096299;28;20087;-80
2024/01/16 06:59:08;;;;;;;5.72;0.88;;;;;;;;;;5096364;28;20047;-80
2024/01/16 07:01:34;;;;;;;5.07;0.77;;;;;;;;;;5095414;28;20048;-80
2024/01/16 07:04:01;;;;;;;3.80;0.85;;;;;;;;;;5109389;27;20046;-82
2024/01/16 07:06:27;;;;;;;7.32;1.00;;;;;;;;;;5116726;27;20054;-81
2024/01/16 07:08:53;;;;;;;6.30;0.60;;;;;;;;;;5116616;28;20043;-81
2024/01/16 07:11:20;;;;;;;4.97;0.80;;;;;;;;;;5099733;27;20508;-81
2024/01/16 07:13:47;;;;;;;2.75;0.82;;;;;;;;;;5115823;28;20039;-81
2024/01/16 07:16:14;;;;;;;5.18;0.80;;;;;;;;;;5116615;28;20043;-81
2024/01/16 07:18:40;;;;;;;3.85;0.65;;;;;;;;;;5117337;28;20055;-81
2024/01/16 07:21:16;;;;;;;4.22;1.15;;;;;;;;;;5116874;28;20047;-81
2024/01/16 07:23:42;;;;;;;3.90;0.77;;;;;;;;;;5116595;28;20047;-81
2024/01/16 07:26:08;;;;;;;7.20;0.95;;;;;;;;;;5099535;28;20046;-80
2024/01/16 07:28:34;;;;;;;4.40;1.00;;;;;;;;;;5099329;28;20047;-84
2024/01/16 07:31:00;;;;;;;5.88;1.00;;;;;;;;;;5117080;28;20066;-82
2024/01/16 07:33:26;;;;;;;3.03;1.23;;;;;;;;;;5116311;28;20394;-82
2024/01/16 07:35:53;;;;;;;6.95;1.23;;;;;;;;;;5116130;28;20467;-82
2024/01/16 07:38:19;;;;;;;4.05;1.08;;;;;;;;;;5082816;28;20055;-82
2024/01/16 07:40:45;;;;;;;3.67;1.10;;;;;;;;;;5116374;28;20050;-85
2024/01/16 07:43:11;;;;;;;3.35;1.08;;;;;;;;;;5098152;28;20047;-84
2024/01/16 07:45:38;;;;;;;2.47;1.15;;;;;;;;;;5116245;28;20051;-85
2024/01/16 07:48:04;;;;;;;6.50;1.33;;;;;;;;;;5099398;28;20043;-82
2024/01/16 07:50:30;;;;;;;3.55;1.20;;;;;;;;;;5099759;28;20043;-85
2024/01/16 07:52:56;;;;;;;3.25;1.35;;;;;;;;;;5116075;28;20093;-83
2024/01/16 07:55:22;;;;;;;6.03;1.58;;;;;;;;;;5116052;28;20046;-90
2024/01/16 07:57:49;;;;;;;4.40;1.77;;;;;;;;;;5082559;28;20390;-84
2024/01/16 08:00:15;;;;;;;4.63;1.83;;;;;;;;;;5116303;28;20050;-81
2024/01/16 08:02:41;;;;;;;3.85;1.25;;;;;;;;;;5099830;28;20050;-84
2024/01/16 08:05:08;;;;;;;3.58;1.20;;;;;;;;;;5099260;28;20095;-83
2024/01/16 08:07:34;;;;;;;7.00;1.65;;;;;;;;;;5115665;28;20050;-82
2024/01/16 08:10:00;;;;;;;5.13;1.25;;;;;;;;;;5099524;28;20044;-82
2024/01/16 08:12:26;;;;;;;7.55;1.38;;;;;;;;;;5116937;27;20043;-82
2024/01/16 08:14:52;;;;;;;5.20;1.33;;;;;;;;;;5102859;27;20050;-85
2024/01/16 08:17:18;;;;;;;5.20;1.63;;;;;;;;;;5102903;27;20122;-81
2024/01/16 08:19:45;;;;;;;5.68;1.80;;;;;;;;;;5119892;27;20047;-83
2024/01/16 08:22:11;;;;;;;7.40;1.40;;;;;;;;;;5119879;27;20055;-84
2024/01/16 08:24:37;;;;;;;5.25;1.30;;;;;;;;;;5102908;27;20401;-83
2024/01/16 08:27:03;;;;;;;5.30;2.00;;;;;;;;;;5119728;27;20050;-89
2024/01/16 08:29:29;;;;;;;10.73;2.08;;;;;;;;;;5102807;27;20483;-81
2024/01/16 08:31:55;;;;;;;5.15;1.73;;;;;;;;;;5119680;27;20130;-80
2024/01/16 08:34:21;;;;;;;5.60;1.98;;;;;;;;;;5119724;27;20046;-81
2024/01/16 08:36:48;;;;;;;5.38;2.25;;;;;;;;;;5119538;27;20039;-81
2024/01/16 08:39:16;;;;;;;6.85;2.70;;;;;;;;;;5119535;27;20050;-81
2024/01/16 08:41:42;;;;;;;6.43;3.05;;;;;;;;;;5119401;27;20047;-80
2024/01/16 08:44:08;;;;;;;7.20;2.60;;;;;;;;;;5136878;27;20045;-81
2024/01/16 08:46:34;;;;;;;9.45;3.00;;;;;;;;;;5117788;27;20078;-82
2024/01/16 08:49:00;;;;;;;4.80;2.55;;;;;;;;;;5116003;27;20041;-81
2024/01/16 08:51:27;;;;;;;7.78;3.53;;;;;;;;;;5116603;27;20039;-82
2024/01/16 08:53:53;;;;;;;6.82;3.88;;;;;;;;;;5100178;27;20096;-81
2024/01/16 08:56:20;;;;;;;6.93;3.20;;;;;;;;;;5113568;27;20039;-80
2024/01/16 08:58:46;;;;;;;5.88;3.33;;;;;;;;;;5117063;27;20879;-81
2024/01/16 09:01:12;;;;;;;5.93;3.30;;;;;;;;;;5135171;27;20039;-80
2024/01/16 09:03:38;;;;;;;10.35;3.72;;;;;;;;;;5118776;27;20130;-80
2024/01/16 09:06:04;;;;;;;7.35;4.35;;;;;;;;;;5102058;27;20054;-81
2024/01/16 09:08:31;;;;;;;6.68;4.03;;;;;;;;;;5118974;27;20129;-81
2024/01/16 09:10:57;;;;;;;7.25;4.18;;;;;;;;;;5101860;27;20051;-82
2024/01/16 09:13:24;;;;;;;10.13;3.85;;;;;;;;;;5118439;27;20042;-81
2024/01/16 09:15:50;;;;;;;10.82;4.25;;;;;;;;;;5118499;27;20074;-83
2024/01/16 09:18:16;;;;;;;10.85;3.85;;;;;;;;;;5118907;27;20478;-81
2024/01/16 09:20:43;;;;;;;9.73;3.85;;;;;;;;;;5101725;27;20540;-83
2024/01/16 09:23:09;;;;;;;9.20;4.22;;;;;;;;;;5118567;27;20043;-82
2024/01/16 09:25:35;;;;;;;7.72;4.13;;;;;;;;;;5084254;27;20118;-83
2024/01/16 09:28:02;;;;;;;6.85;3.88;;;;;;;;;;5118516;27;20051;-85
2024/01/16 09:30:28;;;;;;;7.88;4.18;;;;;;;;;;5101178;27;20391;-82
2024/01/16 09:32:54;;;;;;;11.20;4.50;;;;;;;;;;5118485;27;20039;-82
2024/01/16 09:35:21;;;;;;;9.57;4.03;;;;;;;;;;5118186;27;20039;-83
2024/01/16 09:37:48;;;;;;;10.60;4.32;;;;;;;;;;5101367;27;20070;-86
2024/01/16 09:40:14;;;;;;;9.32;4.60;;;;;;;;;;5083979;27;20046;-82
2024/01/16 09:42:43;;;;;;;10.13;4.72;;;;;;;;;;5117817;27;20074;-83
2024/01/16 09:45:10;;;;;;;8.00;3.90;;;;;;;;;;5118233;27;20122;-83
2024/01/16 09:47:37;;;;;;;11.10;3.83;;;;;;;;;;5101751;27;20066;-82
2024/01/16 09:50:04;;;;;;;6.07;3.50;;;;;;;;;;5101786;27;20189;-81
2024/01/16 09:52:30;;;;;;;9.63;3.97;;;;;;;;;;5081673;28;20395;-82
2024/01/16 09:54:56;;;;;;;6.85;3.85;;;;;;;;;;5080591;28;20096;-82
2024/01/16 09:57:25;;;;;;;6.75;3.60;;;;;;;;;;5097550;28;20053;-82
2024/01/16 09:59:55;;;;;;;9.45;3.70;;;;;;;;;;5080981;28;20044;-82
2024/01/16 10:02:21;;;;;;;9.77;5.15;;;;;;;;;;5097732;28;20047;-81
2024/01/16 10:04:47;;;;;;;6.60;3.83;;;;;;;;;;5097420;28;20399;-81
2024/01/16 10:07:14;;;;;;;8.93;4.25;;;;;;;;;;5080529;28;20047;-81
2024/01/16 10:09:40;;;;;;;4.28;3.20;;;;;;;;;;5097331;28;20137;-81
2024/01/16 10:12:07;;;;;;;7.55;3.22;;;;;;;;;;5097338;28;20047;-82
2024/01/16 10:14:34;;;;;;;5.50;2.97;;;;;;;;;;5114714;28;20468;-82
2024/01/16 10:17:05;;;;;;;8.18;3.17;;;;;;;;;;5080699;28;20075;-82
2024/01/16 10:19:31;;;;;;;8.55;3.10;;;;;;;;;;5098214;28;20524;-82
2024/01/16 10:22:07;;;;;;;4.95;2.75;;;;;;;;;;5080522;28;20051;-82
2024/01/16 10:24:35;;;;;;;3.47;2.85;;;;;;;;;;5097132;28;20051;-82
2024/01/16 10:27:04;;;;;;;4.03;2.00;;;;;;;;;;5097096;28;20047;-82
2024/01/16 10:29:33;;;;;;;4.97;2.60;;;;;;;;;;5097097;28;20396;-82
2024/01/16 10:31:59;;;;;;;9.20;2.10;;;;;;;;;;5063726;28;20043;-83
2024/01/16 10:34:25;;;;;;;4.30;1.90;;;;;;;;;;5096707;28;20084;-81
2024/01/16 10:36:52;;;;;;;5.80;2.65;;;;;;;;;;5096735;28;20396;-83
2024/01/16 10:39:19;;;;;;;4.45;1.85;;;;;;;;;;5096816;28;20440;-83
2024/01/16 10:41:55;;;;;;;6.35;1.63;;;;;;;;;;5096698;28;20507;-83
2024/01/16 10:44:21;;;;;;;6.10;1.27;;;;;;;;;;5096418;28;20440;-82
2024/01/16 10:46:47;;;;;;;4.32;1.20;;;;;;;;;;5096635;28;20480;-82
2024/01/16 10:49:13;;;;;;;2.17;1.08;;;;;;;;;;5079479;28;20130;-82
2024/01/16 10:51:41;;;;;;;3.45;0.82;;;;;;;;;;5079428;28;20047;-83
2024/01/16 10:54:13;;;;;;;5.60;0.77;;;;;;;;;;5096672;28;20144;-83
2024/01/16 10:56:41;;;;;;;2.58;1.25;;;;;;;;;;5096287;28;20507;-83
2024/01/16 10:59:13;;;;;;;2.95;0.80;;;;;;;;;;5114404;28;20130;-83
2024/01/16 11:01:43;;;;;;;5.18;1.30;;;;;;;;;;5096320;28;20051;-83
2024/01/16 11:04:09;;;;;;;6.20;1.15;;;;;;;;;;5096522;28;20058;-82
2024/01/16 11:06:36;;;;;;;3.53;1.10;;;;;;;;;;5096317;28;20054;-83
2024/01/16 11:09:02;;;;;;;7.45;1.30;;;;;;;;;;5079489;28;20047;-83
2024/01/16 11:11:28;;;;;;;5.00;1.10;;;;;;;;;;5062809;28;20083;-83
2024/01/16 11:13:55;;;;;;;4.28;1.10;;;;;;;;;;5095911;28;20091;-83
2024/01/16 11:16:21;;;;;;;7.13;1.38;;;;;;;;;;5096399;28;20082;-82
2024/01/16 11:18:47;;;;;;;5.97;1.25;;;;;;;;;;5079474;28;20051;-82
2024/01/16 11:21:15;;;;;;;8.32;1.60;;;;;;;;;;5078931;28;20073;-83
2024/01/16 11:23:41;;;;;;;3.03;1.38;;;;;;;;;;5079365;28;20441;-82
2024/01/16 11:26:32;;;;;;;5.72;1.75;;;;;;;;;;5096194;28;20052;-83
2024/01/16 11:29:01;;;;;;;2.90;1.35;;;;;;;;;;5096115;28;20089;-82
2024/01/16 11:31:29;;;;;;;6.32;1.83;;;;;;;;;;5108616;28;20479;-83
2024/01/16 11:33:55;;;;;;;4.40;1.75;;;;;;;;;;5116332;28;20526;-82
2024/01/16 11:36:44;;;;;;;3.28;1.90;;;;;;;;;;5116504;28;20043;-82
2024/01/16 11:39:11;;;;;;;4.85;2.45;;;;;;;;;;5116545;28;20047;-83
2024/01/16 11:41:48;;;;;;;8.35;3.10;;;;;;;;;;5116398;28;20483;-83
2024/01/16 11:44:34;;;;;;;6.00;3.00;;;;;;;;;;5116114;28;20522;-83
2024/01/16 11:47:02;;;;;;;7.45;3.83;;;;;;;;;;5116471;27;20079;-83
2024/01/16 11:49:30;;;;;;;7.95;4.05;;;;;;;;;;5120633;27;20047;-83
2024/01/16 11:51:56;;;;;;;10.82;4.75;;;;;;;;;;5120451;27;20091;-83
2024/01/16 11:54:22;;;;;;;7.07;5.15;;;;;;;;;;5138397;27;20043;-83
2024/01/16 11:56:54;;;;;;;8.38;4.90;;;;;;;;;;5120342;27;20039;-83
2024/01/16 11:59:40;;;;;;;10.07;4.22;;;;;;;;;;5118676;27;20109;-83
2024/01/16 12:02:11;;;;;;;6.72;4.90;;;;;;;;;;5102502;27;20386;-83
2024/01/16 12:04:37;;;;;;;13.00;5.78;;;;;;;;;;5120484;27;20133;-83
2024/01/16 12:07:03;;;;;;;7.95;4.85;;;;;;;;;;5103323;27;20047;-83
2024/01/16 12:09:29;;;;;;;11.27;5.78;;;;;;;;;;5103191;27;20050;-83
2024/01/16 12:12:00;;;;;;;9.10;6.10;;;;;;;;;;5119733;27;20474;-84
2024/01/16 12:14:27;;;;;;;8.95;5.80;;;;;;;;;;5102457;27;20043;-83
2024/01/16 12:16:53;;;;;;;12.00;6.60;;;;;;;;;;5138081;27;20043;-83
2024/01/16 12:19:19;;;;;;;9.90;5.15;;;;;;;;;;5119928;27;20122;-83
2024/01/16 12:21:46;;;;;;;12.35;6.40;;;;;;;;;;5119706;27;20039;-83
2024/01/16 12:24:13;;;;;;;11.80;5.93;;;;;;;;;;5119078;27;20043;-83
2024/01/16 12:26:41;;;;;;;10.77;6.70;;;;;;;;;;5102923;27;20051;-83
2024/01/16 12:29:07;;;;;;;9.52;7.03;;;;;;;;;;5120203;27;20047;-83
2024/01/16 12:31:33;;;;;;;11.60;6.43;;;;;;;;;;5119727;27;20107;-83
2024/01/16 12:34:09;;;;;;;10.18;6.13;;;;;;;;;;5102794;27;20047;-83
2024/01/16 12:36:35;;;;;;;11.80;6.53;;;;;;;;;;5119453;27;20058;-83
2024/01/16 12:39:01;;;;;;;10.02;6.20;;;;;;;;;;5085707;27;20051;-83
2024/01/16 12:41:36;;;;;;;10.55;6.88;;;;;;;;;;5102411;27;20051;-83
2024/01/16 12:44:02;;;;;;;11.48;6.43;;;;;;;;;;5119075;27;20486;-83
2024/01/16 12:46:28;;;;;;;12.25;6.10;;;;;;;;;;5119479;27;20478;-83
2024/01/16 12:49:00;;;;;;;9.88;5.88;;;;;;;;;;5119184;27;20093;-83
2024/01/16 12:51:26;;;;;;;8.43;5.35;;;;;;;;;;5119646;27;20104;-82
2024/01/16 12:53:52;;;;;;;11.25;5.65;;;;;;;;;;5119508;27;20043;-82
2024/01/16 12:56:22;;;;;;;7.93;6.60;;;;;;;;;;5119235;27;20458;-83
2024/01/16 12:58:48;;;;;;;9.75;5.25;;;;;;;;;;5135903;27;20043;-83
2024/01/16 13:01:31;;;;;;;13.52;5.10;;;;;;;;;;5119151;27;20039;-83
2024/01/16 13:03:59;;;;;;;12.13;4.72;;;;;;;;;;5119804;27;20047;-82
2024/01/16 13:06:25;;;;;;;8.85;4.80;;;;;;;;;;5102158;27;20058;-83
2024/01/16 13:09:09;;;;;;;12.10;5.82;;;;;;;;;;5119008;27;20474;-82
2024/01/16 13:11:45;;;;;;;9.63;3.92;;;;;;;;;;5119007;27;20126;-85
2024/01/16 13:14:11;;;;;;;9.43;4.07;;;;;;;;;;5118533;27;20082;-84
2024/01/16 13:16:37;;;;;;;8.90;4.15;;;;;;;;;;5119409;27;20050;-83
2024/01/16 13:19:05;;;;;;;6.90;4.07;;;;;;;;;;5118908;27;20043;-84
2024/01/16 13:21:31;;;;;;;10.68;3.83;;;;;;;;;;5118545;27;20133;-83
2024/01/16 13:23:57;;;;;;;11.13;3.53;;;;;;;;;;5118970;27;20043;-82
2024/01/16 13:26:23;;;;;;;8.75;2.92;;;;;;;;;;5118436;27;20050;-82
2024/01/16 13:28:50;;;;;;;5.68;2.65;;;;;;;;;;5118551;27;20054;-81
2024/01/16 13:31:16;;;;;;;4.90;2.60;;;;;;;;;;5101497;27;20108;-82
2024/01/16 13:33:43;;;;;;;7.10;2.15;;;;;;;;;;5101597;27;20057;-82
2024/01/16 13:36:09;;;;;;;6.22;2.47;;;;;;;;;;5118136;27;20092;-82
2024/01/16 13:38:35;;;;;;;6.35;1.98;;;;;;;;;;5118443;27;20039;-82
2024/01/16 13:41:02;;;;;;;4.40;2.00;;;;;;;;;;5136290;27;20054;-82
2024/01/16 13:43:28;;;;;;;7.50;2.70;;;;;;;;;;5101088;27;20481;-84
2024/01/16 13:45:55;;;;;;;11.25;2.05;;;;;;;;;;5101262;27;20081;-81
2024/01/16 13:48:21;;;;;;;6.53;1.65;;;;;;;;;;5118544;27;20086;-81
2024/01/16 13:50:50;;;;;;;6.35;1.77;;;;;;;;;;5117918;27;20103;-89
2024/01/16 13:53:16;;;;;;;5.65;1.88;;;;;;;;;;5099438;27;20059;-81
2024/01/16 13:55:42;;;;;;;6.40;2.03;;;;;;;;;;5117797;27;20094;-81
2024/01/16 13:58:08;;;;;;;7.20;1.63;;;;;;;;;;5117936;27;20079;-81
2024/01/16 14:00:35;;;;;;;6.75;1.77;;;;;;;;;;5118014;27;20051;-81
2024/01/16 14:03:03;;;;;;;6.07;2.15;;;;;;;;;;5101535;27;20074;-81
2024/01/16 14:05:29;;;;;;;5.25;1.33;;;;;;;;;;5118207;27;20058;-81
2024/01/16 14:07:55;;;;;;;7.93;1.60;;;;;;;;;;5117868;27;20055;-81
2024/01/16 14:10:22;;;;;;;3.75;1.60;;;;;;;;;;5135153;27;20479;-81
2024/01/16 14:12:49;;;;;;;2.75;1.50;;;;;;;;;;5117342;27;20501;-81
2024/01/16 14:15:18;;;;;;;6.30;2.30;;;;;;;;;;5117299;27;20043;-81
2024/01/16 14:17:45;;;;;;;3.83;1.48;;;;;;;;;;5117623;27;20055;-81
2024/01/16 14:20:12;;;;;;;5.93;1.70;;;;;;;;;;5135762;27;20043;-80
2024/01/16 14:22:39;;;;;;;5.97;1.85;;;;;;;;;;5135656;27;20402;-80
2024/01/16 14:25:10;;;;;;;8.00;1.77;;;;;;;;;;5117521;27;20058;-80
2024/01/16 14:27:57;;;;;;;7.10;1.15;;;;;;;;;;5117617;27;20479;-80
2024/01/16 14:30:25;;;;;;;6.40;1.73;;;;;;;;;;5100553;27;20466;-80
2024/01/16 14:32:51;;;;;;;5.88;1.60;;;;;;;;;;5117158;27;20387;-80
2024/01/16 14:35:19;;;;;;;3.97;0.90;;;;;;;;;;5100123;27;20039;-80
2024/01/16 14:37:46;;;;;;;5.68;1.35;;;;;;;;;;5135421;27;20043;-80
2024/01/16 14:40:12;;;;;;;7.15;1.77;;;;;;;;;;5117257;27;20039;-80